sensor_id;sensor_type;location;lat;lon;timestamp;pressure;altitude;pressure_sealevel;temperature;humidity
46756;BME280;32506;52.826;-1.192;2023-06-26T00:00:00;100782.84;;;17.48;43.64
46756;BME280;32506;52.826;-1.192;2023-06-26T00:02:25;100787.66;;;17.41;44.02
46756;BME280;32506;52.826;-1.192;2023-06-26T00:04:51;100784.88;;;17.36;44.24
46756;BME280;32506;52.826;-1.192;2023-06-26T00:07:19;100787.53;;;17.31;44.38
46756;BME280;32506;52.826;-1.192;2023-06-26T00:09:45;100787.47;;;17.25;44.07
46756;BME280;32506;52.826;-1.192;2023-06-26T00:12:11;100800.94;;;17.20;44.27
46756;BME280;32506;52.826;-1.192;2023-06-26T00:14:36;100800.84;;;17.15;44.58
46756;BME280;32506;52.826;-1.192;2023-06-26T00:17:02;100802.69;;;17.09;44.78
46756;BME280;32506;52.826;-1.192;2023-06-26T00:19:27;100794.25;;;17.06;44.80
46756;BME280;32506;52.826;-1.192;2023-06-26T00:21:53;100794.19;;;17.01;44.90
46756;BME280;32506;52.826;-1.192;2023-06-26T00:24:18;100803.88;;;16.97;45.02
46756;BME280;32506;52.826;-1.192;2023-06-26T00:26:47;100798.38;;;16.91;45.33
46756;BME280;32506;52.826;-1.192;2023-06-26T00:29:12;100807.22;;;16.87;45.04
46756;BME280;32506;52.826;-1.192;2023-06-26T00:31:38;100813.94;;;16.84;45.16
46756;BME280;32506;52.826;-1.192;2023-06-26T00:34:05;100823.00;;;16.78;45.22
46756;BME280;32506;52.826;-1.192;2023-06-26T00:36:30;100829.16;;;16.73;45.21
46756;BME280;32506;52.826;-1.192;2023-06-26T00:38:56;100829.09;;;16.68;44.72
46756;BME280;32506;52.826;-1.192;2023-06-26T00:41:21;100827.94;;;16.64;44.59
46756;BME280;32506;52.826;-1.192;2023-06-26T00:43:47;100827.88;;;16.59;44.60
46756;BME280;32506;52.826;-1.192;2023-06-26T00:46:13;100832.13;;;16.55;44.47
46756;BME280;32506;52.826;-1.192;2023-06-26T00:48:41;100814.22;;;16.49;44.56
46756;BME280;32506;52.826;-1.192;2023-06-26T00:51:07;100816.81;;;16.43;44.42
46756;BME280;32506;52.826;-1.192;2023-06-26T00:53:33;100822.16;;;16.38;44.29
46756;BME280;32506;52.826;-1.192;2023-06-26T00:55:59;100817.50;;;16.34;44.65
46756;BME280;32506;52.826;-1.192;2023-06-26T00:58:26;100813.09;;;16.27;44.76
46756;BME280;32506;52.826;-1.192;2023-06-26T01:00:52;100820.84;;;16.24;44.72
46756;BME280;32506;52.826;-1.192;2023-06-26T01:03:18;100821.56;;;16.19;45.12
46756;BME280;32506;52.826;-1.192;2023-06-26T01:05:44;100819.63;;;16.15;45.38
46756;BME280;32506;52.826;-1.192;2023-06-26T01:08:12;100819.53;;;16.09;45.44
46756;BME280;32506;52.826;-1.192;2023-06-26T01:10:38;100826.47;;;16.05;45.40
46756;BME280;32506;52.826;-1.192;2023-06-26T01:13:04;100825.31;;;16.01;45.43
46756;BME280;32506;52.826;-1.192;2023-06-26T01:15:30;100826.88;;;15.97;45.70
46756;BME280;32506;52.826;-1.192;2023-06-26T01:17:57;100821.97;;;15.94;46.11
46756;BME280;32506;52.826;-1.192;2023-06-26T01:20:31;100832.41;;;15.90;46.02
46756;BME280;32506;52.826;-1.192;2023-06-26T01:28:39;100832.69;;;15.77;46.12
46756;BME280;32506;52.826;-1.192;2023-06-26T01:31:07;100829.88;;;15.72;46.22
46756;BME280;32506;52.826;-1.192;2023-06-26T01:33:33;100832.22;;;15.68;46.22
46756;BME280;32506;52.826;-1.192;2023-06-26T01:36:00;100838.13;;;15.65;46.15
46756;BME280;32506;52.826;-1.192;2023-06-26T01:38:25;100841.28;;;15.62;46.47
46756;BME280;32506;52.826;-1.192;2023-06-26T01:40:51;100835.56;;;15.58;46.51
46756;BME280;32506;52.826;-1.192;2023-06-26T01:43:41;100838.75;;;15.55;47.14
46756;BME280;32506;52.826;-1.192;2023-06-26T01:51:30;100850.34;;;15.44;47.06
46756;BME280;32506;52.826;-1.192;2023-06-26T01:53:58;100851.09;;;15.39;47.10
46756;BME280;32506;52.826;-1.192;2023-06-26T01:56:26;100850.72;;;15.36;47.27
46756;BME280;32506;52.826;-1.192;2023-06-26T01:58:54;100854.72;;;15.33;47.25
46756;BME280;32506;52.826;-1.192;2023-06-26T02:01:21;100841.16;;;15.28;47.12
46756;BME280;32506;52.826;-1.192;2023-06-26T02:03:47;100848.66;;;15.26;47.63
46756;BME280;32506;52.826;-1.192;2023-06-26T02:06:13;100849.94;;;15.23;47.68
46756;BME280;32506;52.826;-1.192;2023-06-26T02:08:38;100850.19;;;15.22;48.14
46756;BME280;32506;52.826;-1.192;2023-06-26T02:11:03;100838.25;;;15.18;48.58
46756;BME280;32506;52.826;-1.192;2023-06-26T02:13:29;100843.03;;;15.16;49.08
46756;BME280;32506;52.826;-1.192;2023-06-26T02:15:54;100847.88;;;15.14;48.97
46756;BME280;32506;52.826;-1.192;2023-06-26T02:18:20;100851.00;;;15.10;49.28
46756;BME280;32506;52.826;-1.192;2023-06-26T02:20:49;100852.28;;;15.08;49.41
46756;BME280;32506;52.826;-1.192;2023-06-26T02:23:15;100852.53;;;15.06;49.43
46756;BME280;32506;52.826;-1.192;2023-06-26T02:25:40;100853.63;;;15.05;49.39
46756;BME280;32506;52.826;-1.192;2023-06-26T02:28:06;100847.88;;;15.02;49.49
46756;BME280;32506;52.826;-1.192;2023-06-26T02:30:31;100853.75;;;14.99;49.68
46756;BME280;32506;52.826;-1.192;2023-06-26T02:32:57;100858.53;;;14.97;49.35
46756;BME280;32506;52.826;-1.192;2023-06-26T02:35:22;100858.75;;;14.95;49.23
46756;BME280;32506;52.826;-1.192;2023-06-26T02:37:48;100864.38;;;14.93;49.76
46756;BME280;32506;52.826;-1.192;2023-06-26T02:40:13;100864.63;;;14.92;50.01
46756;BME280;32506;52.826;-1.192;2023-06-26T02:42:39;100867.75;;;14.89;49.99
46756;BME280;32506;52.826;-1.192;2023-06-26T02:45:05;100873.38;;;14.87;49.96
46756;BME280;32506;52.826;-1.192;2023-06-26T02:47:30;100869.28;;;14.85;49.71
46756;BME280;32506;52.826;-1.192;2023-06-26T02:49:56;100884.88;;;14.83;49.69
46756;BME280;32506;52.826;-1.192;2023-06-26T02:52:21;100869.16;;;14.80;49.97
46756;BME280;32506;52.826;-1.192;2023-06-26T02:54:47;100875.63;;;14.79;49.80
46756;BME280;32506;52.826;-1.192;2023-06-26T02:57:12;100868.84;;;14.76;49.79
46756;BME280;32506;52.826;-1.192;2023-06-26T02:59:40;100869.28;;;14.73;49.54
46756;BME280;32506;52.826;-1.192;2023-06-26T03:02:05;100876.78;;;14.71;49.30
46756;BME280;32506;52.826;-1.192;2023-06-26T03:04:31;100885.91;;;14.70;49.40
46756;BME280;32506;52.826;-1.192;2023-06-26T03:06:56;100885.31;;;14.68;49.76
46756;BME280;32506;52.826;-1.192;2023-06-26T03:09:22;100893.84;;;14.65;49.50
46756;BME280;32506;52.826;-1.192;2023-06-26T03:11:47;100886.81;;;14.64;49.56
46756;BME280;32506;52.826;-1.192;2023-06-26T03:14:13;100891.81;;;14.60;49.55
46756;BME280;32506;52.826;-1.192;2023-06-26T03:16:39;100899.06;;;14.59;49.50
46756;BME280;32506;52.826;-1.192;2023-06-26T03:19:05;100891.69;;;14.55;49.94
46756;BME280;32506;52.826;-1.192;2023-06-26T03:21:31;100895.44;;;14.54;49.99
46756;BME280;32506;52.826;-1.192;2023-06-26T03:23:57;100895.06;;;14.50;49.80
46756;BME280;32506;52.826;-1.192;2023-06-26T03:26:22;100905.25;;;14.48;49.82
46756;BME280;32506;52.826;-1.192;2023-06-26T03:28:53;100910.03;;;14.46;49.86
46756;BME280;32506;52.826;-1.192;2023-06-26T03:31:18;100903.25;;;14.43;50.35
46756;BME280;32506;52.826;-1.192;2023-06-26T03:33:44;100899.97;;;14.41;50.18
46756;BME280;32506;52.826;-1.192;2023-06-26T03:36:09;100912.81;;;14.39;50.46
46756;BME280;32506;52.826;-1.192;2023-06-26T03:38:35;100915.97;;;14.36;50.51
46756;BME280;32506;52.826;-1.192;2023-06-26T03:41:00;100914.31;;;14.35;50.33
46756;BME280;32506;52.826;-1.192;2023-06-26T03:43:26;100922.06;;;14.32;50.42
46756;BME280;32506;52.826;-1.192;2023-06-26T03:45:51;100919.59;;;14.30;50.02
46756;BME280;32506;52.826;-1.192;2023-06-26T03:48:16;100928.69;;;14.29;50.13
46756;BME280;32506;52.826;-1.192;2023-06-26T03:50:42;100935.34;;;14.26;49.84
46756;BME280;32506;52.826;-1.192;2023-06-26T03:53:07;100928.56;;;14.24;49.72
46756;BME280;32506;52.826;-1.192;2023-06-26T03:55:33;100942.47;;;14.21;49.73
46756;BME280;32506;52.826;-1.192;2023-06-26T03:57:59;100934.59;;;14.19;49.62
46756;BME280;32506;52.826;-1.192;2023-06-26T04:00:24;100934.84;;;14.18;49.64
46756;BME280;32506;52.826;-1.192;2023-06-26T04:02:50;100935.06;;;14.16;49.35
46756;BME280;32506;52.826;-1.192;2023-06-26T04:05:16;100939.03;;;14.14;49.14
46756;BME280;32506;52.826;-1.192;2023-06-26T04:07:42;100941.16;;;14.12;49.54
46756;BME280;32506;52.826;-1.192;2023-06-26T04:10:08;100947.78;;;14.09;49.43
46756;BME280;32506;52.826;-1.192;2023-06-26T04:12:34;100939.97;;;14.07;49.59
46756;BME280;32506;52.826;-1.192;2023-06-26T04:14:59;100949.88;;;14.07;49.33
46756;BME280;32506;52.826;-1.192;2023-06-26T04:17:24;100947.41;;;14.05;49.79
46756;BME280;32506;52.826;-1.192;2023-06-26T04:19:50;100947.41;;;14.05;49.89
46756;BME280;32506;52.826;-1.192;2023-06-26T04:22:15;100959.44;;;14.03;50.59
46756;BME280;32506;52.826;-1.192;2023-06-26T04:24:41;100961.31;;;14.02;50.43
46756;BME280;32506;52.826;-1.192;2023-06-26T04:27:06;100962.34;;;14.01;50.84
46756;BME280;32506;52.826;-1.192;2023-06-26T04:29:32;100965.03;;;14.01;50.82
46756;BME280;32506;52.826;-1.192;2023-06-26T04:31:57;100965.84;;;14.02;50.87
46756;BME280;32506;52.826;-1.192;2023-06-26T04:34:27;100966.91;;;14.01;51.07
46756;BME280;32506;52.826;-1.192;2023-06-26T04:36:53;100970.66;;;14.00;50.78
46756;BME280;32506;52.826;-1.192;2023-06-26T04:39:18;100977.88;;;13.99;50.67
46756;BME280;32506;52.826;-1.192;2023-06-26T04:41:44;100979.75;;;13.99;50.82
46756;BME280;32506;52.826;-1.192;2023-06-26T04:44:10;100988.63;;;13.99;51.00
46756;BME280;32506;52.826;-1.192;2023-06-26T04:46:37;100977.88;;;13.99;51.25
46756;BME280;32506;52.826;-1.192;2023-06-26T04:49:12;100981.16;;;14.01;51.10
46756;BME280;32506;52.826;-1.192;2023-06-26T04:51:37;100983.06;;;14.01;51.45
46756;BME280;32506;52.826;-1.192;2023-06-26T04:54:10;100983.84;;;14.01;51.28
46756;BME280;32506;52.826;-1.192;2023-06-26T04:56:35;100976.59;;;14.02;51.69
46756;BME280;32506;52.826;-1.192;2023-06-26T04:59:01;100983.41;;;14.04;51.42
46756;BME280;32506;52.826;-1.192;2023-06-26T05:01:28;100984.22;;;14.05;51.44
46756;BME280;32506;52.826;-1.192;2023-06-26T05:03:56;100985.03;;;14.05;51.92
46756;BME280;32506;52.826;-1.192;2023-06-26T05:06:22;101004.47;;;14.07;52.27
46756;BME280;32506;52.826;-1.192;2023-06-26T05:08:47;100994.28;;;14.09;52.35
46756;BME280;32506;52.826;-1.192;2023-06-26T05:11:13;100991.38;;;14.11;52.41
46756;BME280;32506;52.826;-1.192;2023-06-26T05:13:38;101001.91;;;14.13;53.10
46756;BME280;32506;52.826;-1.192;2023-06-26T05:16:04;101003.31;;;14.15;52.94
46756;BME280;32506;52.826;-1.192;2023-06-26T05:18:29;101009.28;;;14.17;52.99
46756;BME280;32506;52.826;-1.192;2023-06-26T05:20:55;100999.97;;;14.20;53.53
46756;BME280;32506;52.826;-1.192;2023-06-26T05:23:21;101002.19;;;14.23;52.96
46756;BME280;32506;52.826;-1.192;2023-06-26T05:25:51;101005.47;;;14.25;52.97
46756;BME280;32506;52.826;-1.192;2023-06-26T05:28:16;101010.41;;;14.28;53.93
46756;BME280;32506;52.826;-1.192;2023-06-26T05:30:42;101014.75;;;14.29;54.05
46756;BME280;32506;52.826;-1.192;2023-06-26T05:33:10;101015.91;;;14.33;54.54
46756;BME280;32506;52.826;-1.192;2023-06-26T05:35:36;101011.13;;;14.35;54.68
46756;BME280;32506;52.826;-1.192;2023-06-26T05:38:02;101012.31;;;14.39;54.92
46756;BME280;32506;52.826;-1.192;2023-06-26T05:40:28;101010.78;;;14.43;54.81
46756;BME280;32506;52.826;-1.192;2023-06-26T05:42:54;101017.59;;;14.46;55.00
46756;BME280;32506;52.826;-1.192;2023-06-26T05:45:19;101025.81;;;14.51;55.26
46756;BME280;32506;52.826;-1.192;2023-06-26T05:47:44;101020.00;;;14.54;54.31
46756;BME280;32506;52.826;-1.192;2023-06-26T05:50:12;101031.09;;;14.58;55.20
46756;BME280;32506;52.826;-1.192;2023-06-26T05:52:38;101031.47;;;14.62;55.65
46756;BME280;32506;52.826;-1.192;2023-06-26T05:55:04;101028.94;;;14.67;56.35
46756;BME280;32506;52.826;-1.192;2023-06-26T05:57:30;101035.50;;;14.71;55.61
46756;BME280;32506;52.826;-1.192;2023-06-26T05:59:56;101043.94;;;14.74;54.68
46756;BME280;32506;52.826;-1.192;2023-06-26T06:02:22;101043.00;;;14.81;54.45
46756;BME280;32506;52.826;-1.192;2023-06-26T06:04:48;101047.72;;;14.85;54.83
46756;BME280;32506;52.826;-1.192;2023-06-26T06:07:13;101063.97;;;14.90;55.41
46756;BME280;32506;52.826;-1.192;2023-06-26T06:09:39;101064.09;;;14.96;54.05
46756;BME280;32506;52.826;-1.192;2023-06-26T06:12:05;101066.94;;;15.01;54.94
46756;BME280;32506;52.826;-1.192;2023-06-26T06:14:32;101057.09;;;15.06;54.48
46756;BME280;32506;52.826;-1.192;2023-06-26T06:16:58;101059.94;;;15.12;54.11
46756;BME280;32506;52.826;-1.192;2023-06-26T06:19:23;101063.34;;;15.19;53.93
46756;BME280;32506;52.826;-1.192;2023-06-26T06:21:48;101061.59;;;15.24;55.86
46756;BME280;32506;52.826;-1.192;2023-06-26T06:24:14;101058.19;;;15.29;54.16
46756;BME280;32506;52.826;-1.192;2023-06-26T06:26:39;101068.06;;;15.35;53.82
46756;BME280;32506;52.826;-1.192;2023-06-26T06:29:05;101069.00;;;15.41;53.96
46756;BME280;32506;52.826;-1.192;2023-06-26T06:31:31;101076.97;;;15.48;54.20
46756;BME280;32506;52.826;-1.192;2023-06-26T06:33:57;101079.78;;;15.53;54.53
46756;BME280;32506;52.826;-1.192;2023-06-26T06:36:22;101073.44;;;15.59;54.45
46756;BME280;32506;52.826;-1.192;2023-06-26T06:38:48;101075.19;;;15.65;54.46
46756;BME280;32506;52.826;-1.192;2023-06-26T06:41:14;101079.44;;;15.73;54.64
46756;BME280;32506;52.826;-1.192;2023-06-26T06:43:40;101071.22;;;15.80;54.67
46756;BME280;32506;52.826;-1.192;2023-06-26T06:46:06;101074.88;;;15.85;54.54
46756;BME280;32506;52.826;-1.192;2023-06-26T06:48:31;101080.94;;;15.92;54.01
46756;BME280;32506;52.826;-1.192;2023-06-26T06:50:57;101078.13;;;15.99;53.94
46756;BME280;32506;52.826;-1.192;2023-06-26T06:53:23;101083.38;;;16.06;54.16
46756;BME280;32506;52.826;-1.192;2023-06-26T06:55:51;101080.56;;;16.13;54.12
46756;BME280;32506;52.826;-1.192;2023-06-26T06:58:17;101089.34;;;16.20;54.16
46756;BME280;32506;52.826;-1.192;2023-06-26T07:00:46;101083.84;;;16.26;54.08
46756;BME280;32506;52.826;-1.192;2023-06-26T07:03:11;101091.56;;;16.35;53.95
46756;BME280;32506;52.826;-1.192;2023-06-26T07:05:37;101093.06;;;16.42;53.78
46756;BME280;32506;52.826;-1.192;2023-06-26T07:08:03;101106.97;;;16.51;53.73
46756;BME280;32506;52.826;-1.192;2023-06-26T07:10:29;101104.97;;;16.58;53.99
46756;BME280;32506;52.826;-1.192;2023-06-26T07:12:54;101102.69;;;16.67;53.89
46756;BME280;32506;52.826;-1.192;2023-06-26T07:15:20;101111.47;;;16.74;53.47
46756;BME280;32506;52.826;-1.192;2023-06-26T07:17:45;101107.31;;;16.84;53.75
46756;BME280;32506;52.826;-1.192;2023-06-26T07:20:11;101115.88;;;16.92;53.63
46756;BME280;32506;52.826;-1.192;2023-06-26T07:22:40;101124.41;;;17.01;53.47
46756;BME280;32506;52.826;-1.192;2023-06-26T07:25:06;101124.84;;;17.10;53.59
46756;BME280;32506;52.826;-1.192;2023-06-26T07:27:35;101117.13;;;17.19;53.34
46756;BME280;32506;52.826;-1.192;2023-06-26T07:30:00;101119.22;;;17.28;53.11
46756;BME280;32506;52.826;-1.192;2023-06-26T07:32:26;101118.56;;;17.38;53.13
46756;BME280;32506;52.826;-1.192;2023-06-26T07:34:51;101123.88;;;17.50;53.07
46756;BME280;32506;52.826;-1.192;2023-06-26T07:37:17;101124.59;;;17.63;53.28
46756;BME280;32506;52.826;-1.192;2023-06-26T07:39:42;101121.00;;;17.74;53.00
46756;BME280;32506;52.826;-1.192;2023-06-26T07:42:08;101133.34;;;17.87;53.24
46756;BME280;32506;52.826;-1.192;2023-06-26T07:44:33;101128.94;;;17.98;53.09
46756;BME280;32506;52.826;-1.192;2023-06-26T07:46:58;101127.19;;;18.08;52.96
46756;BME280;32506;52.826;-1.192;2023-06-26T07:49:24;101130.59;;;18.21;52.22
46756;BME280;32506;52.826;-1.192;2023-06-26T07:51:49;101125.31;;;18.31;52.14
46756;BME280;32506;52.826;-1.192;2023-06-26T07:54:15;101128.97;;;18.42;52.01
46756;BME280;32506;52.826;-1.192;2023-06-26T07:56:54;101132.13;;;18.56;51.83
46756;BME280;32506;52.826;-1.192;2023-06-26T07:59:20;101137.63;;;18.66;52.36
46756;BME280;32506;52.826;-1.192;2023-06-26T08:01:47;101135.88;;;18.77;51.61
46756;BME280;32506;52.826;-1.192;2023-06-26T08:04:13;101146.31;;;18.90;51.38
46756;BME280;32506;52.826;-1.192;2023-06-26T08:06:38;101141.03;;;19.01;51.20
46756;BME280;32506;52.826;-1.192;2023-06-26T08:09:06;101136.25;;;19.13;50.75
46756;BME280;32506;52.826;-1.192;2023-06-26T08:11:33;101139.88;;;19.24;50.54
46756;BME280;32506;52.826;-1.192;2023-06-26T08:13:58;101151.13;;;19.38;50.34
46756;BME280;32506;52.826;-1.192;2023-06-26T08:16:24;101149.88;;;19.51;50.60
46756;BME280;32506;52.826;-1.192;2023-06-26T08:18:49;101145.91;;;19.64;50.15
46756;BME280;32506;52.826;-1.192;2023-06-26T08:21:15;101141.91;;;19.76;49.72
46756;BME280;32506;52.826;-1.192;2023-06-26T08:23:40;101134.72;;;19.92;49.88
46756;BME280;32506;52.826;-1.192;2023-06-26T08:26:06;101135.63;;;20.08;50.21
46756;BME280;32506;52.826;-1.192;2023-06-26T08:28:31;101143.59;;;20.25;49.98
46756;BME280;32506;52.826;-1.192;2023-06-26T08:30:57;101136.59;;;20.40;49.81
46756;BME280;32506;52.826;-1.192;2023-06-26T08:33:22;101141.81;;;20.57;48.97
46756;BME280;32506;52.826;-1.192;2023-06-26T08:35:47;101137.28;;;20.73;48.65
46756;BME280;32506;52.826;-1.192;2023-06-26T08:38:13;101138.94;;;20.89;48.72
46756;BME280;32506;52.826;-1.192;2023-06-26T08:40:38;101145.50;;;21.09;48.84
46756;BME280;32506;52.826;-1.192;2023-06-26T08:43:04;101145.50;;;21.24;48.75
46756;BME280;32506;52.826;-1.192;2023-06-26T08:47:59;101145.56;;;21.55;47.42
46756;BME280;32506;52.826;-1.192;2023-06-26T08:50:29;101132.22;;;21.69;46.56
46756;BME280;32506;52.826;-1.192;2023-06-26T08:53:16;101136.25;;;21.87;45.88
46756;BME280;32506;52.826;-1.192;2023-06-26T08:55:47;101132.41;;;21.99;45.66
46756;BME280;32506;52.826;-1.192;2023-06-26T08:58:14;101139.16;;;22.11;45.54
46756;BME280;32506;52.826;-1.192;2023-06-26T09:00:40;101146.75;;;22.25;44.56
46756;BME280;32506;52.826;-1.192;2023-06-26T09:03:06;101138.31;;;22.37;44.39
46756;BME280;32506;52.826;-1.192;2023-06-26T09:05:32;101147.25;;;22.48;44.26
46756;BME280;32506;52.826;-1.192;2023-06-26T09:07:58;101150.22;;;22.56;43.27
46756;BME280;32506;52.826;-1.192;2023-06-26T09:10:24;101146.06;;;22.64;44.07
46756;BME280;32506;52.826;-1.192;2023-06-26T09:12:49;101145.75;;;22.71;43.69
46756;BME280;32506;52.826;-1.192;2023-06-26T09:15:15;101154.97;;;22.80;43.28
46756;BME280;32506;52.826;-1.192;2023-06-26T09:17:42;101148.13;;;22.88;43.58
46756;BME280;32506;52.826;-1.192;2023-06-26T09:20:07;101149.69;;;22.99;42.95
46756;BME280;32506;52.826;-1.192;2023-06-26T09:22:36;101154.78;;;23.11;42.67
46756;BME280;32506;52.826;-1.192;2023-06-26T09:25:04;101150.34;;;23.25;42.66
46756;BME280;32506;52.826;-1.192;2023-06-26T09:27:30;101152.41;;;23.39;42.51
46756;BME280;32506;52.826;-1.192;2023-06-26T09:29:57;101153.38;;;23.53;41.67
46756;BME280;32506;52.826;-1.192;2023-06-26T09:32:24;101162.53;;;23.68;41.85
46756;BME280;32506;52.826;-1.192;2023-06-26T09:34:52;101159.94;;;23.82;42.13
46756;BME280;32506;52.826;-1.192;2023-06-26T09:37:18;101169.91;;;23.96;41.55
46756;BME280;32506;52.826;-1.192;2023-06-26T09:39:44;101164.00;;;24.13;42.20
46756;BME280;32506;52.826;-1.192;2023-06-26T09:42:09;101163.31;;;24.27;41.60
46756;BME280;32506;52.826;-1.192;2023-06-26T09:44:35;101166.13;;;24.41;41.14
46756;BME280;32506;52.826;-1.192;2023-06-26T09:47:02;101166.81;;;24.52;40.65
46756;BME280;32506;52.826;-1.192;2023-06-26T09:49:30;101171.09;;;24.63;40.64
46756;BME280;32506;52.826;-1.192;2023-06-26T09:51:56;101167.63;;;24.76;40.96
46756;BME280;32506;52.826;-1.192;2023-06-26T09:54:22;101174.28;;;24.89;41.24
46756;BME280;32506;52.826;-1.192;2023-06-26T09:56:49;101172.44;;;25.04;41.12
46756;BME280;32506;52.826;-1.192;2023-06-26T09:59:15;101171.16;;;25.15;40.85
46756;BME280;32506;52.826;-1.192;2023-06-26T10:01:43;101187.41;;;25.25;40.46
46756;BME280;32506;52.826;-1.192;2023-06-26T10:04:10;101178.56;;;25.34;39.92
46756;BME280;32506;52.826;-1.192;2023-06-26T10:06:59;101182.97;;;25.49;39.86
46756;BME280;32506;52.826;-1.192;2023-06-26T10:09:27;101177.41;;;25.54;39.39
46756;BME280;32506;52.826;-1.192;2023-06-26T10:12:02;101185.16;;;25.66;38.53
46756;BME280;32506;52.826;-1.192;2023-06-26T10:14:36;101180.81;;;25.78;38.47
46756;BME280;32506;52.826;-1.192;2023-06-26T10:17:04;101185.78;;;25.90;38.09
46756;BME280;32506;52.826;-1.192;2023-06-26T10:19:33;101173.53;;;26.02;38.31
46756;BME280;32506;52.826;-1.192;2023-06-26T10:21:58;101180.47;;;26.13;38.19
46756;BME280;32506;52.826;-1.192;2023-06-26T10:24:26;101185.44;;;26.25;37.85
46756;BME280;32506;52.826;-1.192;2023-06-26T10:27:04;101174.78;;;26.37;38.27
46756;BME280;32506;52.826;-1.192;2023-06-26T10:29:34;101182.00;;;26.47;37.61
46756;BME280;32506;52.826;-1.192;2023-06-26T10:32:02;101186.66;;;26.60;37.71
46756;BME280;32506;52.826;-1.192;2023-06-26T10:34:29;101188.59;;;26.74;36.41
46756;BME280;32506;52.826;-1.192;2023-06-26T10:36:59;101195.66;;;26.89;36.39
46756;BME280;32506;52.826;-1.192;2023-06-26T10:39:26;101188.19;;;27.03;36.92
46756;BME280;32506;52.826;-1.192;2023-06-26T10:41:54;101183.47;;;27.18;36.80
46756;BME280;32506;52.826;-1.192;2023-06-26T10:44:20;101198.88;;;27.27;36.30
46756;BME280;32506;52.826;-1.192;2023-06-26T10:46:55;101206.25;;;27.41;35.96
46756;BME280;32506;52.826;-1.192;2023-06-26T10:49:29;101204.38;;;27.50;35.75
46756;BME280;32506;52.826;-1.192;2023-06-26T10:52:01;101209.41;;;27.57;36.22
46756;BME280;32506;52.826;-1.192;2023-06-26T10:54:31;101208.69;;;27.65;35.99
46756;BME280;32506;52.826;-1.192;2023-06-26T10:56:56;101209.03;;;27.72;35.85
46756;BME280;32506;52.826;-1.192;2023-06-26T10:59:25;101202.78;;;27.80;35.41
46756;BME280;32506;52.826;-1.192;2023-06-26T11:02:04;101204.97;;;27.92;35.98
46756;BME280;32506;52.826;-1.192;2023-06-26T11:04:41;101199.81;;;28.00;35.24
46756;BME280;32506;52.826;-1.192;2023-06-26T11:07:24;101208.28;;;28.12;34.84
46756;BME280;32506;52.826;-1.192;2023-06-26T11:10:08;101198.97;;;28.22;35.06
46756;BME280;32506;52.826;-1.192;2023-06-26T11:12:39;101205.13;;;28.27;34.40
46756;BME280;32506;52.826;-1.192;2023-06-26T11:15:11;101195.78;;;28.37;34.53
46756;BME280;32506;52.826;-1.192;2023-06-26T11:17:38;101206.81;;;28.46;34.32
46756;BME280;32506;52.826;-1.192;2023-06-26T11:20:09;101207.63;;;28.55;34.35
46756;BME280;32506;52.826;-1.192;2023-06-26T11:22:36;101207.34;;;28.66;34.45
46756;BME280;32506;52.826;-1.192;2023-06-26T11:25:03;101203.19;;;28.77;34.66
46756;BME280;32506;52.826;-1.192;2023-06-26T11:30:08;101218.06;;;28.93;33.35
46756;BME280;32506;52.826;-1.192;2023-06-26T11:32:34;101218.56;;;28.95;34.23
46756;BME280;32506;52.826;-1.192;2023-06-26T11:35:03;101213.88;;;28.96;34.03
46756;BME280;32506;52.826;-1.192;2023-06-26T11:37:30;101231.34;;;28.91;32.52
46756;BME280;32506;52.826;-1.192;2023-06-26T11:39:56;101228.75;;;28.86;33.01
46756;BME280;32506;52.826;-1.192;2023-06-26T11:42:21;101229.69;;;28.82;32.44
46756;BME280;32506;52.826;-1.192;2023-06-26T11:44:47;101235.84;;;28.78;32.60
46756;BME280;32506;52.826;-1.192;2023-06-26T11:47:14;101230.81;;;28.80;33.09
46756;BME280;32506;52.826;-1.192;2023-06-26T11:49:47;101233.75;;;28.84;32.62
46756;BME280;32506;52.826;-1.192;2023-06-26T11:52:14;101230.66;;;28.86;32.96
46756;BME280;32506;52.826;-1.192;2023-06-26T11:54:44;101229.22;;;28.88;32.61
46756;BME280;32506;52.826;-1.192;2023-06-26T11:57:14;101222.91;;;28.88;31.97
46756;BME280;32506;52.826;-1.192;2023-06-26T11:59:40;101230.66;;;28.86;31.29
46756;BME280;32506;52.826;-1.192;2023-06-26T12:02:09;101237.47;;;28.79;31.15
46756;BME280;32506;52.826;-1.192;2023-06-26T12:04:41;101242.31;;;28.74;30.58
46756;BME280;32506;52.826;-1.192;2023-06-26T12:07:08;101242.59;;;28.63;30.49
46756;BME280;32506;52.826;-1.192;2023-06-26T12:09:39;101246.13;;;28.55;30.78
46756;BME280;32506;52.826;-1.192;2023-06-26T12:12:06;101246.91;;;28.47;31.07
46756;BME280;32506;52.826;-1.192;2023-06-26T12:14:32;101249.13;;;28.36;30.80
46756;BME280;32506;52.826;-1.192;2023-06-26T12:17:04;101243.09;;;28.25;31.13
46756;BME280;32506;52.826;-1.192;2023-06-26T12:19:30;101246.13;;;28.15;31.21
46756;BME280;32506;52.826;-1.192;2023-06-26T12:21:55;101243.34;;;28.06;31.34
46756;BME280;32506;52.826;-1.192;2023-06-26T12:24:22;101244.06;;;27.98;31.77
46756;BME280;32506;52.826;-1.192;2023-06-26T12:26:53;101250.69;;;27.97;32.21
46756;BME280;32506;52.826;-1.192;2023-06-26T12:29:21;101251.84;;;27.96;32.81
46756;BME280;32506;52.826;-1.192;2023-06-26T12:31:51;101243.28;;;27.98;33.27
46756;BME280;32506;52.826;-1.192;2023-06-26T12:34:20;101238.09;;;27.96;32.78
46756;BME280;32506;52.826;-1.192;2023-06-26T12:36:50;101239.69;;;27.97;32.48
46756;BME280;32506;52.826;-1.192;2023-06-26T12:39:20;101244.72;;;27.95;32.51
46756;BME280;32506;52.826;-1.192;2023-06-26T12:41:52;101235.97;;;27.93;32.37
46756;BME280;32506;52.826;-1.192;2023-06-26T12:44:24;101246.78;;;27.89;32.16
46756;BME280;32506;52.826;-1.192;2023-06-26T12:46:54;101246.09;;;27.84;32.00
46756;BME280;32506;52.826;-1.192;2023-06-26T12:49:20;101249.28;;;27.77;32.17
46756;BME280;32506;52.826;-1.192;2023-06-26T12:51:46;101250.03;;;27.69;31.76
46756;BME280;32506;52.826;-1.192;2023-06-26T12:54:12;101240.94;;;27.59;31.91